createdAt,value
2018-11-27T00:01:10.793Z,76.66
2018-11-27T00:03:45.624Z,77.10
2018-11-27T00:06:15.477Z,77.56
2018-11-27T00:08:45.332Z,77.90
2018-11-27T00:11:15.232Z,78.62
2018-11-27T00:13:45.035Z,79.14
2018-11-27T00:16:14.986Z,79.31
2018-11-27T00:18:44.793Z,79.86
2018-11-27T00:21:14.622Z,80.14
2018-11-27T00:23:44.544Z,80.08
2018-11-27T00:26:14.352Z,81.06
2018-11-27T00:28:44.222Z,81.59
2018-11-27T00:31:14.051Z,83.08
2018-11-27T00:33:43.797Z,83.24
2018-11-27T00:36:13.571Z,84.25
2018-11-27T00:38:43.443Z,85.12
2018-11-27T00:41:13.290Z,84.98
2018-11-27T00:43:43.104Z,85.54
2018-11-27T00:46:12.851Z,85.70
2018-11-27T00:48:42.584Z,85.75
2018-11-27T00:51:12.367Z,86.06
2018-11-27T00:53:42.131Z,86.72
2018-11-27T00:56:11.887Z,86.70
2018-11-27T00:58:41.643Z,87.01
2018-11-27T01:01:11.551Z,86.75
2018-11-27T01:03:41.276Z,87.09
2018-11-27T01:06:11.080Z,87.06
2018-11-27T01:08:40.781Z,87.66
2018-11-27T01:11:10.651Z,87.62
2018-11-27T01:13:40.469Z,87.93
2018-11-27T01:16:10.295Z,88.48
2018-11-27T01:18:40.077Z,88.14
2018-11-27T01:21:10.043Z,88.58
2018-11-27T01:23:39.887Z,88.51
2018-11-27T01:26:09.801Z,88.80
2018-11-27T01:28:39.699Z,89.00
2018-11-27T01:31:09.561Z,89.38
2018-11-27T01:33:39.485Z,89.02
2018-11-27T01:36:09.387Z,88.71
2018-11-27T01:38:39.277Z,89.19
2018-11-27T01:41:09.190Z,89.54
2018-11-27T01:43:39.077Z,89.88
2018-11-27T01:46:09.022Z,89.98
2018-11-27T01:48:38.922Z,89.82
2018-11-27T01:51:08.838Z,88.85
2018-11-27T01:53:38.707Z,88.90
2018-11-27T01:56:08.659Z,88.79
2018-11-27T01:58:38.566Z,88.68
2018-11-27T02:01:08.486Z,88.28
2018-11-27T02:03:38.451Z,88.05
2018-11-27T02:06:08.455Z,88.25
2018-11-27T02:08:38.332Z,88.41
2018-11-27T02:11:08.244Z,87.94
2018-11-27T02:13:38.163Z,87.82
2018-11-27T02:16:08.070Z,87.86
2018-11-27T02:18:37.954Z,87.97
2018-11-27T02:21:08.155Z,87.73
2018-11-27T02:23:37.998Z,87.72
2018-11-27T02:26:07.970Z,87.57
2018-11-27T02:28:37.951Z,87.39
2018-11-27T02:31:07.847Z,87.25
2018-11-27T02:33:37.675Z,86.88
2018-11-27T02:36:07.851Z,87.15
2018-11-27T02:38:37.655Z,87.44
2018-11-27T02:41:07.603Z,87.33
2018-11-27T02:43:37.471Z,87.54
2018-11-27T02:46:07.324Z,87.38
2018-11-27T02:48:37.116Z,87.38
2018-11-27T02:51:07.109Z,87.64
2018-11-27T02:53:36.922Z,87.76
2018-11-27T02:56:06.786Z,87.83
2018-11-27T02:58:36.548Z,87.48
2018-11-27T03:01:06.416Z,87.04
2018-11-27T03:03:36.178Z,87.33
2018-11-27T03:06:06.629Z,87.53
2018-11-27T03:08:36.406Z,87.44
2018-11-27T03:11:06.355Z,87.42
2018-11-27T03:13:36.160Z,87.76
2018-11-27T03:16:06.045Z,87.25
2018-11-27T03:18:35.763Z,87.25
2018-11-27T03:21:06.007Z,86.78
2018-11-27T03:23:35.872Z,86.80
2018-11-27T03:26:05.852Z,86.37
2018-11-27T03:28:35.790Z,85.92
2018-11-27T03:31:05.718Z,85.44
2018-11-27T03:33:35.456Z,83.46
2018-11-27T03:36:05.407Z,83.15
2018-11-27T03:38:35.212Z,82.75
2018-11-27T03:41:05.100Z,82.12
2018-11-27T03:43:34.881Z,81.45
2018-11-27T03:46:04.760Z,81.30
2018-11-27T03:48:34.487Z,81.54
2018-11-27T03:51:04.312Z,81.48
2018-11-27T03:53:34.110Z,81.54
2018-11-27T03:56:03.956Z,80.91
2018-11-27T03:58:33.778Z,81.00
2018-11-27T04:01:03.567Z,80.57
2018-11-27T04:03:33.331Z,80.79
2018-11-27T04:06:03.131Z,80.88
2018-11-27T04:08:32.932Z,80.55
2018-11-27T04:11:04.390Z,80.50
2018-11-27T04:13:34.143Z,80.59
2018-11-27T04:16:03.865Z,80.29
2018-11-27T04:18:33.648Z,79.99
2018-11-27T04:21:03.471Z,80.02
2018-11-27T04:23:33.309Z,80.47
2018-11-27T04:26:03.139Z,80.69
2018-11-27T04:28:33.066Z,80.59
2018-11-27T04:31:03.000Z,80.18
2018-11-27T04:33:32.780Z,80.45
2018-11-27T04:36:02.605Z,81.10
2018-11-27T04:38:32.312Z,80.66
2018-11-27T04:41:02.133Z,80.45
2018-11-27T04:43:31.887Z,80.58
2018-11-27T04:46:01.712Z,81.10
2018-11-27T04:48:31.459Z,80.63
2018-11-27T04:51:01.271Z,81.19
2018-11-27T04:53:31.028Z,81.72
2018-11-27T04:56:00.915Z,81.59
2018-11-27T04:58:30.788Z,81.84
2018-11-27T05:01:00.634Z,82.01
2018-11-27T05:03:30.386Z,82.91
2018-11-27T05:06:00.246Z,82.72
2018-11-27T05:08:30.085Z,83.35
2018-11-27T05:10:59.928Z,83.73
2018-11-27T05:13:29.735Z,84.58
2018-11-27T05:15:59.562Z,84.65
2018-11-27T05:18:29.341Z,85.21
2018-11-27T05:20:59.738Z,84.88
2018-11-27T05:23:29.514Z,85.16
2018-11-27T05:25:59.274Z,85.29
2018-11-27T05:28:29.082Z,85.23
2018-11-27T05:30:58.938Z,86.08
2018-11-27T05:33:28.749Z,85.98
2018-11-27T05:35:58.558Z,86.43
2018-11-27T05:38:28.269Z,86.77
2018-11-27T05:40:58.010Z,87.17
2018-11-27T05:43:27.739Z,87.50
2018-11-27T05:45:57.606Z,87.86
2018-11-27T05:48:27.396Z,88.22
2018-11-27T05:50:57.206Z,88.94
2018-11-27T05:53:27.149Z,89.12
2018-11-27T05:55:56.945Z,89.18
2018-11-27T05:58:26.752Z,88.84
2018-11-27T06:00:56.627Z,88.62
2018-11-27T06:03:26.379Z,89.11
2018-11-27T06:05:56.709Z,89.14
2018-11-27T06:08:27.441Z,88.99
2018-11-27T06:10:57.226Z,89.12
2018-11-27T06:13:27.130Z,89.31
2018-11-27T06:15:57.061Z,89.50
2018-11-27T06:18:26.920Z,89.44
2018-11-27T06:20:56.706Z,89.72
2018-11-27T06:23:26.510Z,89.98
2018-11-27T06:25:56.394Z,90.26
2018-11-27T06:28:26.225Z,90.22
2018-11-27T06:43:43.911Z,90.22
2018-11-27T06:46:13.638Z,90.15
2018-11-27T06:48:43.385Z,90.20
2018-11-27T06:51:13.167Z,90.63
2018-11-27T06:53:42.889Z,90.32
2018-11-27T06:56:12.636Z,90.73
2018-11-27T06:58:42.444Z,90.69
2018-11-27T07:01:12.252Z,91.09
2018-11-27T07:03:41.965Z,91.30
2018-11-27T07:06:12.946Z,91.25
2018-11-27T07:08:42.680Z,90.67
2018-11-27T07:11:12.454Z,90.64
2018-11-27T07:13:42.220Z,91.05
2018-11-27T07:16:11.972Z,90.94
2018-11-27T07:18:41.764Z,90.92
2018-11-27T07:21:11.549Z,90.38
2018-11-27T07:23:41.432Z,90.66
2018-11-27T07:26:11.308Z,90.26
2018-11-27T07:28:41.099Z,89.86
2018-11-27T07:31:10.956Z,90.38
2018-11-27T07:33:41.616Z,89.97
2018-11-27T07:41:55.237Z,89.14
2018-11-27T07:44:26.728Z,89.75
2018-11-27T07:46:56.935Z,89.61
2018-11-27T07:49:27.319Z,89.33
2018-11-27T07:51:57.632Z,89.54
2018-11-27T07:54:28.164Z,89.47
2018-11-27T07:56:58.650Z,89.34
2018-11-27T07:59:28.952Z,89.00
2018-11-27T08:01:59.411Z,88.18
2018-11-27T08:04:29.799Z,88.62
2018-11-27T08:07:00.307Z,88.07
2018-11-27T08:09:40.634Z,87.97
2018-11-27T08:12:11.089Z,88.40
2018-11-27T08:14:41.025Z,87.73
2018-11-27T08:17:10.947Z,87.56
2018-11-27T08:19:40.761Z,87.72
2018-11-27T08:22:10.611Z,87.23
2018-11-27T08:24:40.683Z,86.96
2018-11-27T08:27:10.438Z,86.75
2018-11-27T08:29:40.300Z,86.69
2018-11-27T08:32:10.087Z,86.69
2018-11-27T08:34:39.931Z,86.60
2018-11-27T08:37:09.767Z,87.05
2018-11-27T08:39:40.223Z,86.90
2018-11-27T08:42:10.015Z,86.54
2018-11-27T08:44:39.811Z,85.65
2018-11-27T08:47:17.723Z,86.09
2018-11-27T08:49:47.607Z,85.97
2018-11-27T08:52:17.459Z,85.52
2018-11-27T08:54:47.339Z,84.87
2018-11-27T08:57:17.245Z,85.07
2018-11-27T08:59:47.124Z,85.31
2018-11-27T09:02:17.352Z,84.78
2018-11-27T09:04:47.159Z,84.21
2018-11-27T09:07:17.167Z,83.31
2018-11-27T09:09:46.809Z,82.24
2018-11-27T09:12:20.744Z,82.54
2018-11-27T09:14:50.715Z,82.39
2018-11-27T09:17:20.503Z,82.42
2018-11-27T09:19:50.363Z,82.55
2018-11-27T09:22:20.151Z,82.14
2018-11-27T09:24:49.951Z,81.81
2018-11-27T09:27:19.779Z,81.29
2018-11-27T09:29:49.631Z,80.71
2018-11-27T09:32:19.559Z,80.12
2018-11-27T09:34:49.452Z,79.27
2018-11-27T09:37:19.283Z,78.79
2018-11-27T09:39:49.061Z,78.38
2018-11-27T09:42:18.916Z,79.02
2018-11-27T09:44:48.795Z,79.38
2018-11-27T09:47:18.657Z,78.66
2018-11-27T09:49:48.511Z,78.91
2018-11-27T09:52:18.359Z,78.20
2018-11-27T09:54:48.174Z,78.16
2018-11-27T09:57:18.037Z,78.62
2018-11-27T09:59:47.852Z,78.27
2018-11-27T10:02:17.695Z,76.84
2018-11-27T10:04:47.504Z,76.36
2018-11-27T10:07:17.314Z,75.71
2018-11-27T10:09:47.316Z,75.35
2018-11-27T10:12:17.576Z,75.89
2018-11-27T10:14:47.408Z,75.65
2018-11-27T10:17:17.133Z,75.90
2018-11-27T10:19:46.900Z,76.13
2018-11-27T10:22:16.913Z,75.88
2018-11-27T10:24:46.699Z,75.05
2018-11-27T10:27:16.460Z,74.50
2018-11-27T10:29:46.491Z,74.80
2018-11-27T10:32:16.386Z,75.54
2018-11-27T10:34:46.215Z,74.69
2018-11-27T10:37:16.168Z,73.52
2018-11-27T10:39:46.117Z,72.06
2018-11-27T10:42:15.952Z,72.23
2018-11-27T10:44:45.668Z,70.73
2018-11-27T10:47:15.516Z,70.33
2018-11-27T10:49:45.379Z,71.31
2018-11-27T10:52:15.185Z,71.95
2018-11-27T10:54:44.940Z,71.26
2018-11-27T10:57:14.759Z,71.27
2018-11-27T10:59:44.559Z,71.29
2018-11-27T11:02:19.420Z,70.88
2018-11-27T11:04:49.332Z,70.14
2018-11-27T11:07:19.198Z,69.86
2018-11-27T11:09:49.296Z,69.76
2018-11-27T11:12:19.240Z,69.10
2018-11-27T11:14:49.055Z,69.50
2018-11-27T11:17:19.085Z,68.71
2018-11-27T11:19:49.291Z,67.89
2018-11-27T11:22:19.523Z,68.00
2018-11-27T11:24:49.351Z,67.48
2018-11-27T11:27:19.343Z,68.06
2018-11-27T11:29:49.751Z,67.67
2018-11-27T11:32:19.985Z,66.89
2018-11-27T11:34:49.876Z,67.84
2018-11-27T11:37:19.631Z,67.70
2018-11-27T11:39:49.499Z,67.40
2018-11-27T11:42:19.441Z,66.48
2018-11-27T11:44:50.214Z,67.19
2018-11-27T11:47:21.789Z,66.92
2018-11-27T11:49:52.365Z,67.05
2018-11-27T11:52:22.142Z,65.77
2018-11-27T11:54:52.160Z,66.00
2018-11-27T11:57:22.490Z,64.68
2018-11-27T11:59:52.387Z,65.47
2018-11-27T12:02:22.265Z,65.48
2018-11-27T12:04:52.269Z,65.95
2018-11-27T12:07:22.399Z,65.92
2018-11-27T12:09:52.624Z,64.99
2018-11-27T12:12:23.439Z,64.26
2018-11-27T12:14:53.660Z,64.08
2018-11-27T12:17:26.456Z,64.25
2018-11-27T12:19:57.121Z,64.52
2018-11-27T12:22:27.663Z,64.45
2018-11-27T12:24:58.639Z,64.82
2018-11-27T12:27:28.874Z,65.21
2018-11-27T12:29:58.760Z,65.83
2018-11-27T12:32:28.917Z,65.26
2018-11-27T12:34:58.773Z,65.14
2018-11-27T12:37:28.855Z,65.22
2018-11-27T12:39:59.217Z,66.13
2018-11-27T12:42:29.333Z,66.07
2018-11-27T12:44:59.615Z,66.47
2018-11-27T12:47:30.178Z,65.87
2018-11-27T12:50:00.298Z,65.74
2018-11-27T12:52:30.896Z,65.82
2018-11-27T12:55:00.926Z,65.53
2018-11-27T12:57:30.865Z,65.08
2018-11-27T13:00:00.947Z,64.80
2018-11-27T13:02:31.034Z,64.15
2018-11-27T13:05:00.983Z,63.87
2018-11-27T13:07:31.926Z,63.44
2018-11-27T13:10:02.957Z,63.25
2018-11-27T13:12:32.041Z,61.87
2018-11-27T13:15:02.682Z,62.09
2018-11-27T13:17:32.882Z,62.00
2018-11-27T13:20:03.894Z,61.68
2018-11-27T13:22:33.977Z,61.57
2018-11-27T13:25:04.660Z,61.47
2018-11-27T13:27:34.594Z,60.99
2018-11-27T13:30:07.682Z,61.12
2018-11-27T13:32:37.910Z,60.72
2018-11-27T13:35:11.138Z,61.66
2018-11-27T13:37:41.161Z,62.14
2018-11-27T13:40:13.142Z,62.30
2018-11-27T13:42:43.854Z,61.43
2018-11-27T13:45:15.677Z,61.12
2018-11-27T13:47:46.106Z,61.55
2018-11-27T13:50:17.844Z,61.65
2018-11-27T13:52:47.874Z,62.53
2018-11-27T13:55:21.761Z,62.51
2018-11-27T13:57:51.843Z,62.41
2018-11-27T14:00:24.061Z,62.57
2018-11-27T14:02:58.466Z,62.21
2018-11-27T14:08:11.411Z,62.23
2018-11-27T14:10:42.375Z,62.59
2018-11-27T14:13:12.827Z,62.42
2018-11-27T14:15:43.562Z,62.46
2018-11-27T14:18:13.560Z,62.46
2018-11-27T14:20:43.916Z,62.23
2018-11-27T14:23:14.298Z,62.29
2018-11-27T14:25:44.805Z,62.90
2018-11-27T14:28:15.083Z,62.36
2018-11-27T14:30:45.261Z,62.84
2018-11-27T14:33:15.594Z,62.24
2018-11-27T14:35:45.453Z,62.43
2018-11-27T14:38:15.990Z,62.34
2018-11-27T14:40:46.256Z,62.28
2018-11-27T14:43:16.139Z,61.86
2018-11-27T14:45:46.377Z,60.38
2018-11-27T14:48:16.677Z,60.66
2018-11-27T14:50:47.254Z,59.34
2018-11-27T14:53:17.989Z,60.23
2018-11-27T14:55:48.685Z,60.60
2018-11-27T14:58:19.591Z,60.25
2018-11-27T15:00:51.208Z,59.98
2018-11-27T15:03:21.736Z,60.52
2018-11-27T15:05:52.778Z,61.39
2018-11-27T15:08:23.239Z,61.15
2018-11-27T15:46:02.307Z,60.03
2018-11-27T15:48:34.475Z,58.60
2018-11-27T15:51:04.631Z,58.52
2018-11-27T15:53:35.133Z,57.85
2018-11-27T15:56:05.689Z,56.89
2018-11-27T15:58:37.296Z,57.05
2018-11-27T16:01:08.898Z,57.28
2018-11-27T16:03:38.990Z,56.62
2018-11-27T16:06:18.143Z,57.26
2018-11-27T16:11:44.332Z,57.51
2018-11-27T16:14:16.046Z,58.00
2018-11-27T16:16:46.273Z,58.08
2018-11-27T16:20:06.313Z,57.52
2018-11-27T16:24:55.549Z,58.32
2018-11-27T16:27:43.529Z,59.15
2018-11-27T16:33:56.920Z,59.26
2018-11-27T18:43:55.649Z,69.73
2018-11-27T18:46:26.055Z,68.93
2018-11-27T18:48:57.290Z,69.21
2018-11-27T18:51:30.657Z,69.97
2018-11-27T18:57:08.676Z,68.88
2018-11-27T18:59:48.872Z,69.06
2018-11-27T19:02:20.545Z,69.85
2018-11-27T19:04:52.100Z,69.54
2018-11-27T19:07:22.814Z,69.90
2018-11-27T19:12:54.268Z,70.47
2018-11-27T19:15:31.884Z,70.29
2018-11-27T19:18:08.510Z,69.77
2018-11-27T19:20:38.983Z,69.83
2018-11-27T19:23:16.724Z,69.89
2018-11-27T19:29:00.057Z,69.69
2018-11-27T19:31:30.240Z,70.26
2018-11-27T19:34:16.340Z,69.94
2018-11-27T19:36:49.208Z,69.69
2018-11-27T19:39:31.708Z,69.80
2018-11-27T19:42:02.441Z,69.70
2018-11-27T19:44:33.764Z,69.45
2018-11-27T19:47:03.802Z,69.13
2018-11-27T19:49:39.915Z,69.46
2018-11-27T19:52:11.887Z,69.68
2018-11-27T19:54:44.149Z,69.69
2018-11-27T20:00:38.647Z,69.12
2018-11-27T20:03:12.107Z,68.73
2018-11-27T20:05:42.687Z,69.04
2018-11-27T20:08:17.497Z,69.19
2018-11-27T20:10:48.684Z,69.02
2018-11-27T20:13:18.747Z,68.05
2018-11-27T20:15:48.855Z,68.49
2018-11-27T20:18:20.857Z,68.46
2018-11-27T20:20:51.071Z,68.32
2018-11-27T20:23:21.203Z,68.23
2018-11-27T20:25:51.695Z,68.88
2018-11-27T20:28:23.663Z,68.54
2018-11-27T20:30:54.143Z,67.80
2018-11-27T20:33:25.945Z,67.55
2018-11-27T20:35:57.164Z,67.70
2018-11-27T20:38:27.238Z,68.34
2018-11-27T20:40:57.327Z,67.93
2018-11-27T20:43:27.491Z,68.00
2018-11-27T20:45:57.443Z,67.41
2018-11-27T20:48:28.647Z,67.30
2018-11-27T20:50:58.655Z,67.23
2018-11-27T20:53:28.740Z,67.65
2018-11-27T20:55:58.847Z,66.77
2018-11-27T20:58:28.848Z,66.52
2018-11-27T21:00:58.973Z,66.36
2018-11-27T21:03:29.369Z,67.16
2018-11-27T21:05:59.278Z,66.12
2018-11-27T21:08:29.162Z,65.64
2018-11-27T21:10:59.175Z,65.62
2018-11-27T21:13:29.070Z,65.69
2018-11-27T21:15:58.956Z,66.51
2018-11-27T21:18:28.799Z,66.03
2018-11-27T21:21:00.111Z,65.87
2018-11-27T21:23:30.087Z,65.42
2018-11-27T21:26:06.596Z,64.25
2018-11-27T21:28:36.827Z,64.04
2018-11-27T21:31:09.230Z,63.84
2018-11-27T21:33:39.180Z,64.52
2018-11-27T21:36:09.409Z,64.62
2018-11-27T21:38:39.508Z,64.49
2018-11-27T21:41:09.543Z,65.21
2018-11-27T21:43:39.653Z,64.80
2018-11-27T21:46:09.682Z,62.32
2018-11-27T21:48:39.644Z,62.83
2018-11-27T21:51:09.586Z,63.38
2018-11-27T21:53:40.403Z,63.66
2018-11-27T21:56:10.346Z,63.73
2018-11-27T21:58:40.290Z,64.32
2018-11-27T22:01:10.893Z,64.23
2018-11-27T22:03:40.709Z,64.92
2018-11-27T22:06:10.574Z,64.23
2018-11-27T22:08:50.379Z,63.69
2018-11-27T22:11:20.339Z,63.50
2018-11-27T22:13:50.364Z,63.47
2018-11-27T22:16:20.173Z,63.34
2018-11-27T22:18:49.905Z,63.51
2018-11-27T22:21:20.529Z,61.21
2018-11-27T22:23:50.219Z,61.96
2018-11-27T22:26:19.957Z,62.42
2018-11-27T22:28:50.325Z,63.48
2018-11-27T22:31:20.280Z,63.71
2018-11-27T22:33:50.175Z,64.30
2018-11-27T22:36:20.153Z,64.51
2018-11-27T22:38:49.879Z,63.95
2018-11-27T22:41:19.613Z,63.96
2018-11-27T22:43:49.342Z,64.09
2018-11-27T22:46:19.072Z,64.13
2018-11-27T22:48:49.052Z,64.28
2018-11-27T22:51:18.792Z,65.42
2018-11-27T22:53:48.557Z,66.49
2018-11-27T22:56:18.497Z,67.37
2018-11-27T22:58:48.258Z,67.85
2018-11-27T23:01:17.986Z,67.86
2018-11-27T23:03:47.756Z,68.30
2018-11-27T23:06:17.560Z,68.05
2018-11-27T23:08:47.320Z,68.62
2018-11-27T23:11:17.291Z,68.63
2018-11-27T23:13:46.999Z,68.73
2018-11-27T23:16:16.799Z,69.16
2018-11-27T23:18:47.008Z,69.23
2018-11-27T23:21:16.778Z,68.84
2018-11-27T23:23:46.519Z,68.45
2018-11-27T23:26:16.289Z,67.36
2018-11-27T23:28:46.125Z,67.63
2018-11-27T23:31:15.955Z,67.74
2018-11-27T23:33:45.767Z,68.30
2018-11-27T23:36:15.556Z,68.35
2018-11-27T23:38:45.305Z,68.15
2018-11-27T23:41:15.214Z,68.71
2018-11-27T23:43:45.022Z,68.27
2018-11-27T23:46:14.841Z,67.65
2018-11-27T23:48:44.638Z,68.12
2018-11-27T23:51:14.546Z,68.12
2018-11-27T23:53:44.381Z,68.60
2018-11-27T23:56:14.156Z,68.69
2018-11-27T23:58:43.953Z,68.70
